Time;durP1;ratioP1;P1;durP2;ratioP2;P2;SDS_P1;SDS_P2;PMS_P1;PMS_P2;Temp;Humidity;BMP_temperature;BMP_pressure;BME280_temperature;BME280_humidity;BME280_pressure;Samples;Min_cycle;Max_cycle;Signal;HPM_P1;HPM_P2
2022/03/18 00:02:53;;;;;;;4.20;2.30;;;;;;;9.27;67.42;100647.78;5093630;28;41152;-78
2022/03/18 00:05:21;;;;;;;2.50;2.30;;;;;;;9.31;67.42;100654.69;5115138;28;40735;-78
2022/03/18 00:07:50;;;;;;;2.97;2.67;;;;;;;9.22;67.73;100649.66;5113531;28;40864;-78
2022/03/18 00:10:18;;;;;;;2.90;2.60;;;;;;;9.14;67.73;100646.38;5130911;27;42657;-78
2022/03/18 00:12:48;;;;;;;2.60;2.40;;;;;;;9.28;67.57;100660.06;5114326;28;20739;-78
2022/03/18 00:15:17;;;;;;;3.53;2.97;;;;;;;9.28;67.63;100658.28;5113761;28;41834;-78
2022/03/18 00:17:45;;;;;;;3.13;2.50;;;;;;;9.24;68.06;100654.00;5130752;27;42651;-78
2022/03/18 00:20:14;;;;;;;3.23;2.60;;;;;;;9.16;67.86;100657.75;5127945;27;42575;-78
2022/03/18 00:22:44;;;;;;;3.37;2.90;;;;;;;9.25;67.54;100665.44;5113082;28;41350;-78
2022/03/18 00:25:12;;;;;;;2.57;2.37;;;;;;;9.23;67.71;100667.25;5114049;28;39986;-78
2022/03/18 00:27:42;;;;;;;2.93;2.70;;;;;;;9.15;68.02;100667.47;5113573;28;40876;-78
2022/03/18 00:30:12;;;;;;;3.33;2.80;;;;;;;9.16;68.02;100665.69;5113646;28;41663;-78
2022/03/18 00:32:41;;;;;;;2.80;2.53;;;;;;;9.19;67.78;100665.59;5096027;28;42765;-79
2022/03/18 00:35:10;;;;;;;3.27;2.43;;;;;;;9.22;67.56;100669.03;5113360;28;39730;-78
2022/03/18 00:37:38;;;;;;;4.27;2.90;;;;;;;9.25;67.62;100676.03;5130325;27;41281;-78
2022/03/18 00:40:07;;;;;;;3.90;2.30;;;;;;;9.19;67.39;100662.97;5096516;28;42118;-78
2022/03/18 00:42:35;;;;;;;2.57;2.37;;;;;;;9.14;67.47;100656.97;5112051;27;43138;-78
2022/03/18 00:45:04;;;;;;;3.07;2.80;;;;;;;9.23;67.42;100667.25;5113609;28;41240;-78
2022/03/18 00:52:59;;;;;;;2.77;2.33;;;;;;;9.19;67.64;100674.41;5112590;28;42329;-78
2022/03/18 00:55:27;;;;;;;4.47;2.53;;;;;;;9.20;67.55;100677.91;5096592;28;39036;-78
2022/03/18 00:57:55;;;;;;;3.77;3.20;;;;;;;9.15;67.74;100682.47;5112874;28;41891;-78
2022/03/18 01:00:23;;;;;;;4.60;2.97;;;;;;;9.08;67.94;100681.75;5096021;28;41798;-78
2022/03/18 01:02:50;;;;;;;3.00;2.70;;;;;;;9.10;67.86;100679.97;5095359;28;42455;-78
2022/03/18 01:05:20;;;;;;;3.60;2.73;;;;;;;9.14;67.70;100684.25;5114187;28;41874;-78
2022/03/18 01:07:49;;;;;;;3.43;2.87;;;;;;;9.04;67.76;100666.03;5113913;28;42040;-78
2022/03/18 01:10:17;;;;;;;2.97;2.67;;;;;;;9.15;67.73;100687.78;5111052;28;43447;-78
2022/03/18 01:12:45;;;;;;;4.10;2.87;;;;;;;9.19;67.74;100689.41;5129861;27;42211;-78
2022/03/18 01:15:12;;;;;;;4.93;2.83;;;;;;;9.16;67.94;100695.63;5112779;28;38822;-77
2022/03/18 01:17:40;;;;;;;4.00;2.87;;;;;;;9.17;67.60;100704.44;5112883;28;41875;-79
2022/03/18 01:20:08;;;;;;;4.23;2.87;;;;;;;9.02;67.63;100670.50;5114029;28;42908;-78
2022/03/18 01:22:37;;;;;;;2.90;2.57;;;;;;;9.13;67.77;100692.22;5111746;28;41365;-78
2022/03/18 01:25:06;;;;;;;3.73;3.00;;;;;;;9.18;67.60;100699.09;5130011;27;40182;-78
2022/03/18 01:27:34;;;;;;;2.57;2.37;;;;;;;9.15;67.71;100691.25;5112031;28;42062;-78
2022/03/18 01:30:02;;;;;;;2.83;2.60;;;;;;;9.04;67.79;100676.59;5112311;28;43896;-78
2022/03/18 01:32:32;;;;;;;4.53;3.10;;;;;;;9.17;67.77;100704.44;5113567;28;42274;-78
2022/03/18 01:35:00;;;;;;;3.90;2.70;;;;;;;9.17;67.67;100696.50;5113630;28;40683;-78
2022/03/18 01:37:27;;;;;;;4.10;3.37;;;;;;;9.12;67.83;100706.34;5112184;28;42724;-78
2022/03/18 01:39:56;;;;;;;4.00;3.10;;;;;;;9.16;67.58;100702.69;5113675;28;43066;-78
2022/03/18 01:42:24;;;;;;;3.47;3.03;;;;;;;9.06;67.61;100690.63;5111966;28;42443;-78
2022/03/18 01:44:52;;;;;;;3.67;3.00;;;;;;;9.18;67.71;100701.75;5112480;28;40745;-78
2022/03/18 01:47:20;;;;;;;5.80;2.93;;;;;;;9.18;67.42;100706.16;5095149;28;40724;-78
2022/03/18 01:49:48;;;;;;;5.10;3.57;;;;;;;9.12;68.04;100704.56;5112181;28;43756;-78
2022/03/18 01:52:15;;;;;;;5.00;3.10;;;;;;;8.99;67.85;100693.47;5111238;28;42213;-78
2022/03/18 01:54:47;;;;;;;4.13;3.17;;;;;;;9.07;68.20;100698.53;5111996;28;41290;-78
2022/03/18 01:57:19;;;;;;;4.53;3.20;;;;;;;9.12;67.80;100706.34;5111134;28;41783;-79
2022/03/18 01:59:48;;;;;;;3.07;2.63;;;;;;;9.13;67.59;100714.25;5095189;28;41833;-78
2022/03/18 02:02:16;;;;;;;6.70;3.27;;;;;;;9.17;67.38;100715.00;5112858;28;43458;-78
2022/03/18 02:04:44;;;;;;;5.30;3.30;;;;;;;9.11;67.92;100709.91;5112085;28;40922;-79
2022/03/18 02:07:13;;;;;;;3.60;3.13;;;;;;;9.07;67.82;100719.69;5111671;28;41235;-77
2022/03/18 02:09:41;;;;;;;4.77;3.03;;;;;;;9.11;67.42;100720.47;5113164;28;43027;-77
2022/03/18 02:12:10;;;;;;;3.73;2.90;;;;;;;9.12;67.42;100723.09;5094535;28;41385;-77
2022/03/18 02:14:41;;;;;;;4.40;3.70;;;;;;;9.12;67.25;100725.72;5094977;28;39824;-78
2022/03/18 02:17:10;;;;;;;3.73;3.03;;;;;;;9.10;67.26;100730.19;5111435;28;41836;-77
2022/03/18 02:19:40;;;;;;;6.23;3.50;;;;;;;9.14;67.37;100723.03;5093657;28;42980;-78
2022/03/18 02:22:11;;;;;;;3.60;2.80;;;;;;;9.14;67.56;100736.25;5111522;28;42251;-78
2022/03/18 02:24:42;;;;;;;4.07;3.20;;;;;;;9.13;67.12;100734.53;5109424;28;40028;-78
2022/03/18 02:27:10;;;;;;;3.90;2.80;;;;;;;9.09;67.09;100732.84;5128488;27;43095;-78
2022/03/18 02:29:38;;;;;;;4.13;2.93;;;;;;;9.12;66.86;100743.34;5111653;28;41782;-77
2022/03/18 02:32:07;;;;;;;4.33;3.20;;;;;;;9.10;67.02;100735.47;5111661;28;43349;-78
2022/03/18 02:34:36;;;;;;;4.30;2.83;;;;;;;9.12;66.81;100748.66;5112698;28;39946;-78
2022/03/18 02:37:04;;;;;;;3.40;2.90;;;;;;;9.03;67.10;100733.88;5111170;28;40751;-78
2022/03/18 02:39:32;;;;;;;3.33;2.80;;;;;;;9.02;67.24;100743.56;5111451;28;41907;-78
2022/03/18 02:42:01;;;;;;;4.67;3.37;;;;;;;9.08;66.86;100752.25;5112452;28;42320;-78
2022/03/18 02:44:29;;;;;;;3.97;2.80;;;;;;;9.10;66.92;100750.44;5094566;28;40116;-78
2022/03/18 02:46:58;;;;;;;4.10;3.10;;;;;;;9.05;66.84;100749.69;5128700;27;42531;-78
2022/03/18 02:49:27;;;;;;;4.60;3.10;;;;;;;9.05;67.04;100752.34;5094240;28;44219;-78
2022/03/18 02:51:55;;;;;;;3.63;2.93;;;;;;;9.07;66.84;100755.81;5111066;28;43302;-76
2022/03/18 02:54:22;;;;;;;3.07;2.70;;;;;;;9.08;66.77;100757.56;5110999;28;40261;-78
2022/03/18 02:56:50;;;;;;;4.53;3.00;;;;;;;9.08;66.63;100762.84;5112532;28;41334;-78
2022/03/18 02:59:20;;;;;;;3.40;3.10;;;;;;;8.99;66.85;100754.25;5093979;28;41826;-78
2022/03/18 03:01:48;;;;;;;4.67;3.10;;;;;;;8.98;66.75;100755.16;5111012;28;44067;-78
2022/03/18 03:04:17;;;;;;;5.43;3.57;;;;;;;9.02;66.83;100764.72;5111050;28;40652;-78
2022/03/18 03:09:29;;;;;;;3.80;3.30;;;;;;;8.86;67.06;100763.38;5112017;28;42676;-78
2022/03/18 03:11:57;;;;;;;3.40;2.80;;;;;;;8.83;67.16;100749.38;5097471;28;40881;-78
2022/03/18 03:14:26;;;;;;;4.80;3.07;;;;;;;8.96;66.79;100758.72;5097891;28;40290;-78
2022/03/18 03:16:54;;;;;;;4.50;2.87;;;;;;;8.98;66.92;100773.66;5114601;28;41576;-78
2022/03/18 03:19:22;;;;;;;4.30;2.77;;;;;;;9.02;66.73;100773.59;5096640;28;43444;-78
2022/03/18 03:21:49;;;;;;;4.17;2.83;;;;;;;8.97;66.89;100771.91;5115325;28;42482;-78
2022/03/18 03:24:17;;;;;;;4.43;3.23;;;;;;;8.95;66.86;100775.50;5097402;28;39980;-78
2022/03/18 03:26:45;;;;;;;3.27;2.57;;;;;;;8.94;66.78;100782.56;5114655;28;41889;-77
2022/03/18 03:29:12;;;;;;;4.70;2.73;;;;;;;8.92;67.02;100768.50;5096684;28;41840;-78
2022/03/18 03:31:41;;;;;;;4.30;2.50;;;;;;;8.95;66.72;100783.41;5130993;27;42156;-78
2022/03/18 03:34:08;;;;;;;3.37;2.87;;;;;;;8.93;66.88;100791.38;5113916;28;40945;-78
2022/03/18 03:36:36;;;;;;;3.93;2.60;;;;;;;8.87;67.14;100794.19;5131562;27;41883;-78
2022/03/18 03:39:04;;;;;;;3.30;2.80;;;;;;;8.87;67.03;100791.56;5114278;28;42882;-78
2022/03/18 03:41:31;;;;;;;3.23;2.87;;;;;;;8.94;66.52;100797.53;5131608;27;43289;-78
2022/03/18 03:43:58;;;;;;;4.63;2.67;;;;;;;8.95;66.50;100802.78;5114520;28;39993;-79
2022/03/18 03:46:26;;;;;;;3.40;2.80;;;;;;;8.91;66.93;100803.75;5131437;27;41822;-78
2022/03/18 03:48:55;;;;;;;3.17;2.37;;;;;;;8.52;66.86;100741.34;5113926;28;43405;-78
2022/03/18 03:51:23;;;;;;;5.70;3.00;;;;;;;8.86;66.98;100807.44;5130962;27;42260;-77
2022/03/18 03:53:50;;;;;;;3.80;2.60;;;;;;;8.80;66.94;100808.44;5114215;28;41140;-78
2022/03/18 03:56:18;;;;;;;4.50;2.70;;;;;;;8.85;67.31;100819.78;5113683;28;41805;-78
2022/03/18 03:58:45;;;;;;;3.07;2.30;;;;;;;8.80;67.38;100826.94;5114241;28;41504;-77
2022/03/18 04:01:13;;;;;;;3.33;2.50;;;;;;;8.81;67.06;100823.38;5131012;27;42214;-78
2022/03/18 04:03:40;;;;;;;4.83;2.43;;;;;;;8.80;67.22;100823.41;5096928;28;39260;-78
2022/03/18 04:06:09;;;;;;;3.03;2.70;;;;;;;8.62;66.95;100806.25;5113385;28;43483;-77
2022/03/18 04:08:37;;;;;;;3.50;1.90;;;;;;;8.74;66.92;100832.38;5113834;28;42933;-77
2022/03/18 04:11:05;;;;;;;3.77;2.60;;;;;;;8.64;67.24;100825.59;5113556;28;42679;-77
2022/03/18 04:13:33;;;;;;;4.50;2.53;;;;;;;8.63;67.30;100829.13;5112980;28;41197;-78
2022/03/18 04:16:00;;;;;;;2.97;2.40;;;;;;;8.67;67.38;100836.06;5114772;28;41478;-78
2022/03/18 04:18:28;;;;;;;2.63;2.20;;;;;;;8.57;67.23;100827.47;5113221;28;42855;-78
2022/03/18 04:20:55;;;;;;;5.30;2.47;;;;;;;8.64;67.00;100837.00;5112873;28;42500;-78
2022/03/18 04:23:25;;;;;;;3.40;2.57;;;;;;;8.61;67.22;100842.38;5114626;28;40714;-77
2022/03/18 04:25:52;;;;;;;5.10;2.90;;;;;;;8.67;67.09;100840.47;5114618;28;41636;-78
2022/03/18 04:28:20;;;;;;;3.40;2.53;;;;;;;8.65;67.36;100844.00;5113336;28;43121;-78
2022/03/18 04:30:48;;;;;;;4.43;2.40;;;;;;;8.61;66.99;100852.94;5114349;28;42185;-78
2022/03/18 04:33:15;;;;;;;3.33;3.00;;;;;;;8.47;67.27;100833.00;5114445;28;41309;-77
2022/03/18 04:35:43;;;;;;;2.90;2.23;;;;;;;8.54;67.68;100861.88;5114560;28;42703;-77
2022/03/18 04:38:11;;;;;;;2.90;2.20;;;;;;;8.50;67.55;100864.63;5095647;28;41974;-78
2022/03/18 04:40:40;;;;;;;5.73;2.50;;;;;;;8.50;67.58;100860.22;5113291;28;43402;-78
2022/03/18 04:43:07;;;;;;;4.57;3.03;;;;;;;8.49;67.40;100869.03;5113216;28;38895;-77
2022/03/18 04:45:35;;;;;;;3.17;2.50;;;;;;;8.51;67.27;100874.31;5114150;28;41993;-78
2022/03/18 04:48:03;;;;;;;6.43;2.27;;;;;;;8.48;67.46;100856.75;5112964;28;43165;-79
2022/03/18 04:50:30;;;;;;;5.83;2.47;;;;;;;8.44;67.69;100880.59;5113586;28;43044;-78
2022/03/18 04:52:57;;;;;;;4.57;2.37;;;;;;;8.42;67.93;100874.47;5112744;28;39012;-78
2022/03/18 04:55:25;;;;;;;3.20;2.20;;;;;;;8.28;67.47;100853.63;5096029;28;42386;-78
2022/03/18 04:57:54;;;;;;;4.40;2.33;;;;;;;8.39;67.74;100877.19;5114224;28;43745;-78
2022/03/18 05:00:24;;;;;;;4.90;2.67;;;;;;;8.28;68.05;100880.88;5130418;27;42324;-78
2022/03/18 05:02:52;;;;;;;4.10;2.70;;;;;;;8.11;68.90;100859.25;5112760;28;38985;-78
2022/03/18 05:05:21;;;;;;;3.50;2.50;;;;;;;8.23;68.48;100881.88;5130209;27;41881;-77
2022/03/18 05:07:50;;;;;;;4.23;2.83;;;;;;;8.19;68.85;100870.53;5112329;28;41838;-77
2022/03/18 05:10:19;;;;;;;3.83;2.10;;;;;;;8.24;68.66;100879.22;5112553;28;43012;-77
2022/03/18 05:12:46;;;;;;;2.80;2.13;;;;;;;8.21;68.18;100889.84;5113630;28;40944;-77
2022/03/18 05:15:16;;;;;;;6.10;2.40;;;;;;;8.23;68.25;100888.03;5112499;28;40687;-78
2022/03/18 05:17:50;;;;;;;4.60;2.57;;;;;;;8.18;68.50;100899.59;5113187;28;42867;-78
2022/03/18 05:20:18;;;;;;;4.33;2.30;;;;;;;8.13;68.32;100909.38;5112763;28;41595;-78
2022/03/18 05:22:46;;;;;;;3.90;2.00;;;;;;;8.14;68.07;100906.72;5095181;28;40095;-78
2022/03/18 05:25:14;;;;;;;4.00;2.33;;;;;;;8.18;68.28;100920.69;5111495;28;42334;-79
2022/03/18 05:27:43;;;;;;;5.97;2.20;;;;;;;8.08;68.27;100903.31;5112273;27;42450;-78
2022/03/18 05:30:13;;;;;;;4.87;2.00;;;;;;;8.18;68.32;100928.63;5123957;27;42321;-78
2022/03/18 05:32:42;;;;;;;3.00;2.33;;;;;;;8.12;68.21;100932.25;5112034;28;39022;-78
2022/03/18 05:35:11;;;;;;;5.10;2.27;;;;;;;8.17;67.87;100934.78;5111919;28;43991;-78
2022/03/18 05:37:38;;;;;;;5.03;2.47;;;;;;;8.18;67.96;100937.41;5095060;28;43391;-78
2022/03/18 05:40:08;;;;;;;3.63;2.17;;;;;;;8.16;67.83;100935.72;5113543;28;42262;-78
2022/03/18 05:42:35;;;;;;;4.33;2.13;;;;;;;8.20;67.92;100940.88;5112265;28;40970;-78
2022/03/18 05:45:03;;;;;;;4.87;2.60;;;;;;;8.24;67.57;100946.97;5095426;28;42125;-78
2022/03/18 05:47:31;;;;;;;4.90;2.57;;;;;;;8.25;67.88;100946.09;5111896;28;41774;-78
2022/03/18 05:50:05;;;;;;;3.27;2.00;;;;;;;8.24;67.84;100953.13;5111667;28;44110;-77
2022/03/18 05:52:34;;;;;;;4.57;2.23;;;;;;;8.23;67.77;100951.41;5111541;27;41713;-78
2022/03/18 05:55:01;;;;;;;4.30;2.57;;;;;;;8.21;67.97;100958.47;5112178;28;41051;-78
2022/03/18 05:57:28;;;;;;;3.27;2.47;;;;;;;8.22;68.03;100962.84;5111217;28;44326;-78
2022/03/18 05:59:57;;;;;;;5.13;2.53;;;;;;;8.22;67.97;100959.34;5112580;28;42998;-76
2022/03/18 06:02:26;;;;;;;3.73;2.47;;;;;;;8.21;68.18;100957.59;5112950;28;41833;-78
2022/03/18 06:04:53;;;;;;;5.40;2.60;;;;;;;8.29;67.83;100971.50;5111996;28;40202;-78
2022/03/18 06:07:22;;;;;;;3.90;2.50;;;;;;;8.34;67.46;100976.75;5111649;28;42350;-78
2022/03/18 06:12:35;;;;;;;3.53;2.53;;;;;;;8.33;67.50;100972.34;5094539;28;40257;-78
2022/03/18 06:15:02;;;;;;;5.40;2.57;;;;;;;8.28;67.34;100960.06;5115365;27;43384;-78
2022/03/18 06:17:30;;;;;;;6.23;2.47;;;;;;;8.45;66.92;100987.97;5111955;28;43537;-78
2022/03/18 06:19:58;;;;;;;5.37;2.27;;;;;;;8.45;66.83;100983.56;5114592;27;42253;-78
2022/03/18 06:22:27;;;;;;;4.80;2.53;;;;;;;8.47;67.02;100980.88;5110914;27;40612;-78
2022/03/18 06:24:55;;;;;;;2.90;2.10;;;;;;;8.49;66.34;100987.00;5094278;28;40671;-77
2022/03/18 06:27:22;;;;;;;4.20;2.50;;;;;;;8.54;66.33;100991.28;5111365;28;42896;-77
2022/03/18 06:29:51;;;;;;;4.03;2.23;;;;;;;8.62;66.10;100993.78;5112747;28;42338;-77
2022/03/18 06:32:19;;;;;;;5.77;2.13;;;;;;;8.54;65.79;101000.97;5111014;28;40165;-78
2022/03/18 06:34:47;;;;;;;6.27;2.33;;;;;;;8.60;65.77;100996.47;5113782;27;41224;-78
2022/03/18 06:37:15;;;;;;;3.60;2.03;;;;;;;8.60;65.69;100999.09;5133178;27;42562;-79
2022/03/18 06:39:44;;;;;;;4.20;2.97;;;;;;;8.74;65.17;101011.16;5098438;28;42915;-77
2022/03/18 06:42:12;;;;;;;6.07;2.33;;;;;;;8.72;64.95;101008.53;5094154;28;38273;-78
2022/03/18 06:44:40;;;;;;;3.47;2.47;;;;;;;8.68;65.22;101017.41;5094128;28;41045;-78
2022/03/18 06:47:08;;;;;;;4.13;2.23;;;;;;;8.82;64.60;101023.28;5106112;27;42559;-78
2022/03/18 06:49:36;;;;;;;7.50;3.17;;;;;;;8.94;64.35;101020.41;5111281;28;43176;-77
2022/03/18 06:52:04;;;;;;;4.87;2.27;;;;;;;9.06;63.79;101023.69;5112240;28;41663;-77
2022/03/18 06:54:32;;;;;;;4.47;2.37;;;;;;;9.09;63.58;101032.41;5111931;28;41718;-76
2022/03/18 06:57:01;;;;;;;4.00;2.20;;;;;;;9.20;63.71;101029.53;5090002;28;41744;-79
2022/03/18 06:59:29;;;;;;;7.47;2.90;;;;;;;9.25;62.93;101044.41;5104955;28;42107;-77
2022/03/18 07:01:58;;;;;;;5.23;2.40;;;;;;;9.35;62.94;101047.72;5092800;28;40680;-80
2022/03/18 07:04:25;;;;;;;6.27;2.50;;;;;;;9.33;62.98;101045.09;5109128;28;41549;-82
2022/03/18 07:06:53;;;;;;;6.10;2.93;;;;;;;9.49;62.76;101056.19;5092458;28;43268;-77
2022/03/18 07:09:20;;;;;;;5.07;2.80;;;;;;;9.49;62.02;101061.50;5093539;28;41217;-78
2022/03/18 07:11:48;;;;;;;7.53;2.57;;;;;;;9.50;62.42;101057.06;5093501;28;40101;-80
2022/03/18 07:14:17;;;;;;;4.97;2.73;;;;;;;9.63;61.61;101070.00;5110306;28;40382;-81
2022/03/18 07:19:30;;;;;;;3.93;2.60;;;;;;;9.93;61.02;101072.78;5105160;28;43562;-80
2022/03/18 07:21:57;;;;;;;4.60;2.63;;;;;;;9.97;60.37;101077.97;5123024;28;38793;-80
2022/03/18 07:24:25;;;;;;;3.23;2.27;;;;;;;10.08;60.48;101080.34;5117364;28;40829;-80
2022/03/18 07:26:52;;;;;;;5.87;2.60;;;;;;;10.19;60.11;101075.69;5120651;28;43419;-78
2022/03/18 07:29:21;;;;;;;5.00;2.67;;;;;;;10.26;59.56;101064.03;5116398;28;41637;-84
2022/03/18 07:31:51;;;;;;;4.23;2.40;;;;;;;10.41;58.99;101087.47;5109866;28;40024;-83
2022/03/18 07:34:20;;;;;;;4.33;2.67;;;;;;;10.62;58.84;101085.19;5110502;28;40935;-81
2022/03/18 07:36:47;;;;;;;5.03;2.50;;;;;;;10.82;58.32;101085.47;5109570;28;41872;-82
2022/03/18 07:39:15;;;;;;;6.73;3.40;;;;;;;11.10;57.65;101115.63;5111325;28;42270;-80
2022/03/18 07:41:43;;;;;;;3.93;2.80;;;;;;;11.10;56.38;101117.41;5109484;28;40028;-82
2022/03/18 07:44:13;;;;;;;4.87;2.70;;;;;;;11.20;56.07;101115.34;5093047;28;40560;-80
2022/03/18 07:46:42;;;;;;;3.70;2.50;;;;;;;11.35;56.29;101125.50;5120003;27;43114;-80
2022/03/18 07:49:11;;;;;;;3.53;2.47;;;;;;;11.49;55.92;101118.03;5101149;28;41479;-80
2022/03/18 07:51:39;;;;;;;5.60;3.30;;;;;;;11.51;55.13;101132.09;5106889;28;39835;-80
2022/03/18 07:54:06;;;;;;;4.73;3.03;;;;;;;11.68;54.86;101140.41;5113658;27;41258;-79
2022/03/18 07:56:34;;;;;;;4.03;2.97;;;;;;;11.75;54.16;101136.69;5113897;28;42949;-79
2022/03/18 07:59:02;;;;;;;3.03;2.73;;;;;;;11.77;54.13;101140.16;5113731;28;42756;-79
2022/03/18 08:01:29;;;;;;;7.00;3.00;;;;;;;11.84;53.69;101152.34;5096105;28;40417;-79
2022/03/18 08:03:59;;;;;;;4.90;2.93;;;;;;;11.71;52.87;101134.16;5112693;28;41867;-81
2022/03/18 08:06:26;;;;;;;6.47;3.07;;;;;;;12.02;52.90;101163.28;5130221;27;42384;-80
2022/03/18 08:08:55;;;;;;;5.67;2.60;;;;;;;11.89;52.59;101157.50;5093790;28;43216;-82
2022/03/18 08:11:23;;;;;;;5.30;2.23;;;;;;;12.03;52.21;101157.06;5093518;28;39927;-83
2022/03/18 08:13:52;;;;;;;5.63;2.63;;;;;;;12.17;51.80;101168.13;5096237;28;40980;-79
2022/03/18 08:16:19;;;;;;;6.10;3.13;;;;;;;12.08;51.46;101155.16;5105720;27;41708;-80
2022/03/18 08:18:47;;;;;;;4.20;2.50;;;;;;;12.25;51.31;101179.34;5116047;27;43198;-79
2022/03/18 08:21:16;;;;;;;6.00;2.70;;;;;;;12.37;50.91;101176.31;5113688;27;39130;-79
2022/03/18 08:23:50;;;;;;;4.87;2.50;;;;;;;12.46;50.56;101183.13;5108369;28;42470;-80
2022/03/18 08:26:18;;;;;;;5.87;2.30;;;;;;;12.66;49.88;101172.69;5114277;27;42870;-80
2022/03/18 08:28:45;;;;;;;7.13;3.30;;;;;;;12.83;49.38;101190.72;5113060;28;43375;-83
2022/03/18 08:31:13;;;;;;;3.50;2.50;;;;;;;13.16;49.15;101207.31;5113360;27;41328;-79
2022/03/18 08:33:40;;;;;;;4.37;2.67;;;;;;;13.37;47.96;101216.31;5130060;27;42012;-82
2022/03/18 08:36:08;;;;;;;4.37;2.63;;;;;;;13.63;47.64;101218.88;5113264;27;43122;-79
2022/03/18 08:38:39;;;;;;;6.27;2.43;;;;;;;13.61;47.02;101221.59;5112751;28;41503;-80
2022/03/18 08:41:07;;;;;;;5.67;2.60;;;;;;;13.89;46.88;101225.88;5113280;27;39211;-83
2022/03/18 08:43:35;;;;;;;5.00;2.70;;;;;;;14.30;46.02;101226.94;5112850;28;41633;-81
2022/03/18 08:46:03;;;;;;;4.27;2.20;;;;;;;14.47;45.46;101213.81;5112797;27;41745;-80
2022/03/18 08:48:30;;;;;;;5.73;2.73;;;;;;;14.70;44.87;101226.22;5112488;28;42234;-83
2022/03/18 08:50:58;;;;;;;6.00;2.17;;;;;;;14.72;44.83;101225.19;5112411;27;38759;-81
2022/03/18 08:53:25;;;;;;;4.40;2.57;;;;;;;15.13;45.15;101225.25;5112511;28;41270;-80
2022/03/18 08:55:56;;;;;;;5.23;2.67;;;;;;;15.36;44.05;101235.78;5129924;27;43699;-80
2022/03/18 08:58:24;;;;;;;5.77;2.60;;;;;;;15.78;42.71;101242.84;5113550;28;42202;-84
2022/03/18 09:00:52;;;;;;;6.90;2.87;;;;;;;16.23;42.56;101254.97;5095778;28;39957;-80
2022/03/18 09:03:20;;;;;;;5.87;3.03;;;;;;;16.64;41.63;101245.84;5111752;27;41858;-81
2022/03/18 09:05:47;;;;;;;6.20;3.23;;;;;;;16.49;40.42;101215.34;5113423;28;42726;-81
2022/03/18 09:08:15;;;;;;;4.93;3.20;;;;;;;16.86;40.07;101265.25;5113277;28;41921;-90
2022/03/18 09:10:43;;;;;;;4.80;2.80;;;;;;;16.91;40.46;101264.16;5111150;28;40173;-85
2022/03/18 09:13:17;;;;;;;7.90;2.60;;;;;;;16.91;39.73;101258.81;5112418;28;41816;-88
2022/03/18 09:15:45;;;;;;;6.60;2.83;;;;;;;17.28;39.89;101260.47;5112517;28;44559;-85
2022/03/18 09:18:14;;;;;;;7.37;3.10;;;;;;;18.00;38.60;101282.50;5111920;28;42058;-81
2022/03/18 09:20:47;;;;;;;6.67;2.70;;;;;;;18.17;37.61;101281.59;5112608;28;40888;-81
2022/03/18 09:23:16;;;;;;;6.63;2.80;;;;;;;18.45;37.13;101257.59;5112095;28;41790;-80
2022/03/18 09:25:44;;;;;;;6.90;2.83;;;;;;;19.17;36.19;101277.59;5095194;28;43140;-84
2022/03/18 09:28:13;;;;;;;7.20;2.80;;;;;;;19.16;36.23;101270.53;5112306;28;42247;-86
2022/03/18 09:30:41;;;;;;;4.93;2.97;;;;;;;19.69;35.13;101286.09;5095478;28;39494;-87
2022/03/18 09:33:09;;;;;;;6.97;3.40;;;;;;;20.06;34.30;101304.34;5094569;28;42246;-84
2022/03/18 09:35:38;;;;;;;5.37;2.73;;;;;;;19.75;34.53;101301.00;5095277;28;43808;-79
2022/03/18 09:38:07;;;;;;;4.90;3.00;;;;;;;19.67;33.98;101294.25;5111723;28;42243;-78
2022/03/18 09:40:34;;;;;;;7.83;3.77;;;;;;;19.33;35.02;101284.66;5113167;28;40793;-83
2022/03/18 09:43:04;;;;;;;7.70;3.50;;;;;;;19.47;35.20;101281.13;5111608;28;41970;-82
2022/03/18 09:45:35;;;;;;;6.13;3.13;;;;;;;20.05;34.70;101291.00;5112345;28;42530;-81
2022/03/18 09:48:06;;;;;;;6.80;3.10;;;;;;;20.11;34.00;101304.06;5094556;28;41163;-82
2022/03/18 09:50:34;;;;;;;5.90;3.03;;;;;;;19.94;34.20;101297.06;5094784;28;41433;-80
2022/03/18 09:53:01;;;;;;;4.50;2.30;;;;;;;19.85;34.82;101300.31;5093913;28;43818;-80
2022/03/18 09:55:30;;;;;;;4.83;2.60;;;;;;;19.96;34.75;101288.88;5129065;27;42706;-82
2022/03/18 09:57:58;;;;;;;5.03;2.80;;;;;;;19.97;34.50;101304.06;5111209;28;42345;-81
2022/03/18 10:00:26;;;;;;;3.97;2.90;;;;;;;19.80;33.80;101306.94;5111501;28;39290;-79
2022/03/18 10:03:10;;;;;;;5.63;2.93;;;;;;;19.86;34.58;101303.88;5111915;28;41713;-79
2022/03/18 10:05:49;;;;;;;3.73;2.43;;;;;;;19.48;34.66;101296.31;5112498;28;42453;-85
2022/03/18 10:08:17;;;;;;;4.37;2.60;;;;;;;19.43;34.37;101306.47;5094325;28;41282;-82
2022/03/18 10:10:46;;;;;;;3.80;3.40;;;;;;;19.53;34.60;101288.00;5112688;28;40812;-81
2022/03/18 10:13:16;;;;;;;4.70;2.97;;;;;;;20.72;34.07;101278.59;5093944;28;41540;-84
2022/03/18 10:15:44;;;;;;;5.73;2.90;;;;;;;21.69;31.83;101323.19;5111564;28;42727;-82
2022/03/18 10:18:14;;;;;;;6.17;3.07;;;;;;;22.05;31.82;101322.44;5112472;28;42515;-85
2022/03/18 10:20:46;;;;;;;6.73;3.53;;;;;;;21.41;32.04;101321.50;5094076;28;39560;-80
2022/03/18 10:23:25;;;;;;;6.27;3.27;;;;;;;21.46;32.46;101313.97;5112048;28;41845;-82
2022/03/18 10:25:54;;;;;;;4.93;3.00;;;;;;;21.48;32.45;101317.44;5141267;27;43778;-79
2022/03/18 10:28:37;;;;;;;5.23;3.27;;;;;;;21.57;32.83;101312.38;5115866;27;42359;-79
2022/03/18 10:31:16;;;;;;;5.80;3.17;;;;;;;21.08;32.90;101313.00;5094016;28;41207;-84
2022/03/18 10:39:31;;;;;;;6.87;3.43;;;;;;;19.97;34.49;101304.06;5094394;28;42653;-80
2022/03/18 10:42:01;;;;;;;4.47;3.27;;;;;;;20.15;34.87;101294.84;5111804;28;40026;-81
2022/03/18 10:44:31;;;;;;;3.80;3.40;;;;;;;20.57;33.85;101302.00;5113601;27;42231;-82
2022/03/18 10:46:59;;;;;;;6.93;3.60;;;;;;;19.77;34.34;101304.47;5076159;28;43427;-80
2022/03/18 10:49:28;;;;;;;6.93;3.70;;;;;;;19.60;34.87;101298.28;5110909;28;41421;-82
2022/03/18 10:52:10;;;;;;;5.30;3.77;;;;;;;20.40;34.35;101305.78;5121282;27;40018;-80
2022/03/18 10:54:38;;;;;;;7.60;3.73;;;;;;;21.03;32.91;101294.44;5110650;27;41755;-85
2022/03/18 10:57:06;;;;;;;5.77;3.80;;;;;;;22.14;32.60;101296.63;5093559;28;45291;-87
2022/03/18 10:59:35;;;;;;;6.33;4.10;;;;;;;22.76;31.50;101321.78;5093893;28;42903;-84
2022/03/18 11:02:05;;;;;;;8.93;3.93;;;;;;;23.69;30.52;101325.53;5110387;28;41400;-84
2022/03/18 11:04:34;;;;;;;6.53;3.63;;;;;;;25.30;28.73;101322.31;5112347;27;42881;-83
2022/03/18 11:12:36;;;;;;;4.73;3.37;;;;;;;28.04;26.29;101355.34;5092789;28;39099;-84
2022/03/18 11:15:04;;;;;;;4.83;3.37;;;;;;;27.60;25.21;101354.13;5105532;27;43448;-82
2022/03/18 11:17:34;;;;;;;5.23;4.03;;;;;;;28.60;25.16;101348.97;5124046;27;43785;-83
2022/03/18 11:20:04;;;;;;;4.13;3.73;;;;;;;28.23;24.12;101368.09;5110376;28;43267;-79
2022/03/18 11:22:33;;;;;;;5.80;3.30;;;;;;;28.19;23.77;101362.06;5109739;27;41387;-82
2022/03/18 11:25:02;;;;;;;4.47;3.13;;;;;;;27.70;24.88;101351.41;5110741;28;42425;-85
2022/03/18 11:27:30;;;;;;;4.20;3.30;;;;;;;27.41;23.94;101355.00;5111340;27;42762;-85
2022/03/18 11:30:25;;;;;;;4.57;3.47;;;;;;;28.10;23.69;101356.63;5115110;28;41414;-89
2022/03/18 11:33:21;;;;;;;4.90;3.53;;;;;;;28.06;23.05;101360.66;5096018;28;40570;-85
2022/03/18 11:36:16;;;;;;;4.77;3.37;;;;;;;27.82;24.28;101342.06;5067639;28;41033;-86
2022/03/18 11:39:02;;;;;;;5.90;3.47;;;;;;;27.23;24.58;101351.25;5111521;28;43705;-81
2022/03/18 11:42:05;;;;;;;4.77;4.30;;;;;;;26.99;25.07;101348.06;5112411;28;42451;-83
2022/03/18 11:44:44;;;;;;;4.50;3.60;;;;;;;26.25;25.55;101325.78;5097294;28;39069;-84
2022/03/18 11:47:38;;;;;;;5.13;4.07;;;;;;;25.83;26.68;101320.44;5112261;28;42705;-83
2022/03/18 11:50:47;;;;;;;6.77;3.73;;;;;;;25.90;26.57;101332.47;5114307;28;42584;-83
2022/03/18 11:53:48;;;;;;;5.43;3.97;;;;;;;24.97;27.02;101328.72;5111346;28;42335;-79
2022/03/18 11:56:19;;;;;;;6.37;3.63;;;;;;;24.85;26.98;101310.75;5112268;28;40956;-83
2022/03/18 11:58:47;;;;;;;6.93;4.13;;;;;;;24.91;27.93;101308.38;5096138;28;41735;-81
2022/03/18 12:01:40;;;;;;;5.93;4.33;;;;;;;24.63;27.73;101312.50;5096662;28;43743;-85
2022/03/18 12:04:09;;;;;;;6.63;3.93;;;;;;;23.19;28.42;101311.31;5110661;28;41087;-81
2022/03/18 12:07:11;;;;;;;6.23;3.57;;;;;;;22.93;30.25;101293.50;5114696;28;39930;-88